Saint George, Canada
Current Conditions -  °F | °C
As of 4:00 PM on Monday 22 Dec 2014 (Local Time) from CYSJ Reporting Station
Broken Clouds Broken Clouds  
Wind Chill: 27°   Ceiling: 2500
Heat Index: 32°   Visibility: 15mi
Dew Point: 25°   Wind: 5mph
Humidity: 75%   Direction: 100°E
Pressure: 30.43"   Gusts: NA
Location:  45.13°N, 66.82°W
Report Text: CYSJ 222000Z 10004KT 15SM BKN025 M00/M04 A3043 RMK SC7 SLP311
Loading
Personal Weather Stations






























Interactive Weather Map New forecast layout! Learn more

10-Day Weather Forecast

Advertisements
Track Severe Weather on mobile